createdAt,value
2023-04-16T00:02:18.143Z,4.47
2023-04-16T00:04:45.962Z,4.55
2023-04-16T00:07:13.636Z,4.63
2023-04-16T00:09:41.181Z,5.22
2023-04-16T00:12:08.745Z,4.75
2023-04-16T00:14:36.440Z,4.65
2023-04-16T00:17:03.794Z,4.60
2023-04-16T00:19:31.393Z,4.30
2023-04-16T00:21:58.823Z,4.65
2023-04-16T00:24:26.357Z,4.55
2023-04-16T00:26:53.670Z,4.80
2023-04-16T00:29:21.882Z,4.47
2023-04-16T00:31:49.211Z,4.75
2023-04-16T00:34:16.703Z,4.68
2023-04-16T00:36:44.066Z,4.80
2023-04-16T00:39:11.670Z,5.38
2023-04-16T00:41:39.213Z,4.80
2023-04-16T00:44:06.767Z,4.97
2023-04-16T00:46:35.007Z,5.10
2023-04-16T00:49:03.841Z,5.03
2023-04-16T00:51:31.827Z,5.10
2023-04-16T00:53:59.418Z,4.75
2023-04-16T00:56:27.045Z,5.13
2023-04-16T00:58:57.580Z,4.85
2023-04-16T01:01:24.992Z,5.30
2023-04-16T01:03:53.037Z,5.10
2023-04-16T01:06:20.860Z,4.68
2023-04-16T01:08:49.108Z,4.90
2023-04-16T01:11:16.570Z,4.68
2023-04-16T01:13:44.281Z,5.47
2023-04-16T01:16:12.788Z,5.35
2023-04-16T01:18:40.603Z,5.00
2023-04-16T01:21:08.054Z,4.88
2023-04-16T01:23:36.382Z,5.38
2023-04-16T01:26:03.899Z,5.43
2023-04-16T01:28:31.530Z,5.05
2023-04-16T01:30:59.609Z,5.40
2023-04-16T01:33:27.217Z,4.97
2023-04-16T01:35:54.604Z,5.07
2023-04-16T01:38:22.168Z,5.28
2023-04-16T01:40:49.489Z,4.95
2023-04-16T01:43:17.101Z,5.63
2023-04-16T01:45:44.400Z,5.03
2023-04-16T01:48:12.360Z,5.05
2023-04-16T01:50:40.330Z,5.40
2023-04-16T01:53:09.578Z,5.00
2023-04-16T01:55:36.880Z,5.20
2023-04-16T01:58:04.462Z,5.65
2023-04-16T02:00:31.682Z,5.40
2023-04-16T02:03:00.381Z,5.22
2023-04-16T02:05:28.320Z,5.97
2023-04-16T02:07:56.001Z,5.30
2023-04-16T02:10:23.416Z,5.72
2023-04-16T02:12:51.155Z,5.22
2023-04-16T02:15:18.716Z,5.60
2023-04-16T02:17:47.869Z,5.55
2023-04-16T02:20:15.629Z,5.63
2023-04-16T02:22:43.436Z,5.65
2023-04-16T02:25:11.608Z,5.53
2023-04-16T02:27:39.124Z,5.45
2023-04-16T02:30:07.302Z,4.88
2023-04-16T02:32:34.903Z,5.47
2023-04-16T02:35:03.971Z,5.47
2023-04-16T02:37:31.849Z,5.10
2023-04-16T02:39:59.174Z,5.20
2023-04-16T02:42:26.707Z,5.50
2023-04-16T02:44:54.049Z,5.45
2023-04-16T02:47:21.648Z,6.15
2023-04-16T02:49:48.907Z,5.60
2023-04-16T02:52:16.460Z,5.57
2023-04-16T02:54:43.719Z,5.05
2023-04-16T02:57:11.328Z,5.70
2023-04-16T02:59:38.607Z,5.45
2023-04-16T03:02:06.296Z,5.68
2023-04-16T03:04:34.066Z,5.72
2023-04-16T03:07:01.722Z,5.25
2023-04-16T03:09:29.115Z,5.32
2023-04-16T03:11:57.292Z,5.40
2023-04-16T03:14:24.489Z,5.50
2023-04-16T03:16:52.175Z,5.43
2023-04-16T03:19:19.612Z,5.82
2023-04-16T03:21:47.205Z,5.57
2023-04-16T03:24:14.513Z,5.85
2023-04-16T03:26:42.157Z,5.70
2023-04-16T03:29:09.590Z,5.80
2023-04-16T03:31:37.204Z,5.70
2023-04-16T03:34:04.562Z,5.47
2023-04-16T03:36:33.066Z,5.47
2023-04-16T03:39:00.949Z,5.88
2023-04-16T03:41:28.499Z,5.60
2023-04-16T03:43:56.054Z,5.38
2023-04-16T03:46:23.910Z,5.90
2023-04-16T03:48:51.559Z,5.75
2023-04-16T03:51:19.172Z,5.65
2023-04-16T03:53:46.681Z,5.50
2023-04-16T03:56:14.313Z,5.82
2023-04-16T03:58:41.613Z,5.80
2023-04-16T04:01:09.387Z,5.32
2023-04-16T04:03:37.008Z,5.82
2023-04-16T04:06:08.588Z,5.32
2023-04-16T04:08:36.494Z,5.68
2023-04-16T04:11:04.377Z,6.05
2023-04-16T04:13:31.613Z,5.40
2023-04-16T04:15:59.864Z,5.90
2023-04-16T04:18:27.213Z,5.60
2023-04-16T04:20:54.802Z,5.85
2023-04-16T04:23:22.197Z,5.72
2023-04-16T04:25:49.989Z,5.78
2023-04-16T04:28:17.834Z,5.80
2023-04-16T04:30:45.389Z,6.03
2023-04-16T04:33:12.791Z,5.70
2023-04-16T04:35:40.403Z,5.75
2023-04-16T04:38:07.691Z,5.50
2023-04-16T04:40:35.236Z,5.97
2023-04-16T04:43:03.226Z,5.65
2023-04-16T04:45:32.101Z,5.85
2023-04-16T04:47:59.612Z,5.50
2023-04-16T04:50:27.277Z,5.88
2023-04-16T04:52:54.753Z,5.97
2023-04-16T04:55:22.655Z,5.40
2023-04-16T04:57:50.428Z,5.70
2023-04-16T05:00:18.021Z,5.95
2023-04-16T05:02:45.465Z,6.10
2023-04-16T05:05:13.274Z,5.80
2023-04-16T05:07:40.925Z,5.68
2023-04-16T05:10:09.140Z,5.50
2023-04-16T05:12:36.595Z,5.63
2023-04-16T05:15:05.156Z,6.10
2023-04-16T05:17:33.222Z,6.03
2023-04-16T05:20:00.811Z,6.95
2023-04-16T05:22:28.056Z,8.15
2023-04-16T05:24:56.434Z,8.77
2023-04-16T05:27:23.684Z,8.70
2023-04-16T05:29:51.268Z,8.52
2023-04-16T05:32:18.746Z,9.13
2023-04-16T05:34:46.522Z,8.00
2023-04-16T05:37:13.866Z,8.65
2023-04-16T05:39:41.403Z,9.35
2023-04-16T05:42:08.928Z,8.27
2023-04-16T05:44:36.588Z,8.60
2023-04-16T05:47:03.824Z,8.32
2023-04-16T05:49:31.379Z,7.70
2023-04-16T05:51:58.650Z,9.10
2023-04-16T05:54:26.312Z,8.45
2023-04-16T05:56:53.568Z,8.32
2023-04-16T05:59:21.598Z,7.82
2023-04-16T06:01:48.873Z,8.70
2023-04-16T06:04:16.630Z,8.18
2023-04-16T06:06:44.131Z,8.25
2023-04-16T06:09:12.120Z,7.55
2023-04-16T06:11:39.687Z,7.43
2023-04-16T06:14:07.512Z,7.72
2023-04-16T06:16:34.951Z,7.85
2023-04-16T06:19:03.053Z,8.32
2023-04-16T06:21:31.719Z,7.63
2023-04-16T06:23:59.426Z,7.40
2023-04-16T06:26:26.883Z,7.20
2023-04-16T06:28:54.387Z,8.07
2023-04-16T06:31:21.894Z,7.53
2023-04-16T06:33:49.501Z,8.85
2023-04-16T06:36:17.019Z,7.80
2023-04-16T06:38:44.653Z,7.68
2023-04-16T06:41:14.458Z,7.35
2023-04-16T06:43:42.136Z,8.32
2023-04-16T06:46:09.478Z,7.90
2023-04-16T06:48:37.143Z,8.13
2023-04-16T06:51:04.571Z,8.43
2023-04-16T06:53:32.223Z,8.82
2023-04-16T06:55:59.555Z,8.10
2023-04-16T06:58:27.367Z,8.98
2023-04-16T07:00:54.879Z,9.93
2023-04-16T07:03:22.844Z,9.57
2023-04-16T07:05:50.586Z,9.35
2023-04-16T07:08:18.202Z,10.20
2023-04-16T07:10:45.623Z,9.85
2023-04-16T07:13:13.410Z,9.85
2023-04-16T07:15:40.994Z,10.90
2023-04-16T07:18:08.850Z,10.25
2023-04-16T07:20:36.655Z,10.05
2023-04-16T07:23:04.408Z,9.82
2023-04-16T07:25:31.773Z,10.18
2023-04-16T07:27:59.417Z,10.00
2023-04-16T07:30:32.667Z,9.70
2023-04-16T07:33:04.405Z,10.05
2023-04-16T07:35:32.003Z,10.60
2023-04-16T07:37:59.752Z,9.75
2023-04-16T07:40:27.331Z,10.43
2023-04-16T07:42:55.217Z,10.18
2023-04-16T07:45:23.624Z,9.90
2023-04-16T07:47:51.408Z,9.63
2023-04-16T07:50:19.502Z,9.70
2023-04-16T07:52:47.406Z,10.18
2023-04-16T07:55:14.771Z,9.57
2023-04-16T07:57:42.481Z,8.90
2023-04-16T08:00:10.826Z,9.70
2023-04-16T08:02:38.668Z,8.85
2023-04-16T08:05:07.303Z,9.32
2023-04-16T08:07:34.995Z,9.75
2023-04-16T08:10:02.601Z,9.13
2023-04-16T08:12:30.625Z,8.75
2023-04-16T08:14:58.244Z,8.60
2023-04-16T08:17:26.204Z,8.52
2023-04-16T08:19:53.731Z,8.55
2023-04-16T08:22:22.401Z,8.20
2023-04-16T08:24:49.883Z,8.25
2023-04-16T08:27:19.116Z,8.48
2023-04-16T08:29:47.882Z,8.40
2023-04-16T08:32:15.629Z,8.07
2023-04-16T08:34:43.362Z,7.93
2023-04-16T08:37:10.994Z,7.75
2023-04-16T08:39:38.324Z,7.20
2023-04-16T08:42:09.846Z,7.40
2023-04-16T08:44:42.139Z,7.55
2023-04-16T08:47:12.742Z,7.20
2023-04-16T08:49:45.066Z,7.30
2023-04-16T08:52:18.493Z,6.78
2023-04-16T08:54:57.083Z,6.72
2023-04-16T08:57:30.442Z,6.22
2023-04-16T08:59:58.316Z,7.00
2023-04-16T09:02:27.197Z,6.82
2023-04-16T09:04:56.498Z,6.63
2023-04-16T09:07:25.736Z,6.45
2023-04-16T09:09:53.825Z,6.72
2023-04-16T09:12:24.082Z,6.57
2023-04-16T09:14:51.595Z,6.43
2023-04-16T09:17:19.584Z,6.40
2023-04-16T09:19:46.894Z,6.38
2023-04-16T09:22:14.448Z,5.82
2023-04-16T09:24:41.971Z,6.30
2023-04-16T09:27:09.451Z,6.35
2023-04-16T09:29:41.573Z,6.25
2023-04-16T09:32:11.282Z,6.30
2023-04-16T09:35:01.748Z,5.93
2023-04-16T09:37:30.803Z,5.72
2023-04-16T09:40:04.024Z,5.78
2023-04-16T09:42:33.727Z,5.97
2023-04-16T09:45:04.071Z,5.88
2023-04-16T09:47:40.973Z,7.38
2023-04-16T09:50:11.267Z,5.82
2023-04-16T09:52:40.221Z,6.30
2023-04-16T09:55:07.728Z,5.88
2023-04-16T09:57:38.067Z,5.57
2023-04-16T10:00:08.949Z,5.55
2023-04-16T10:02:41.552Z,5.55
2023-04-16T10:05:09.674Z,5.28
2023-04-16T10:07:37.808Z,5.32
2023-04-16T10:10:06.635Z,5.30
2023-04-16T10:12:34.290Z,5.95
2023-04-16T10:15:01.848Z,6.10
2023-04-16T10:17:31.517Z,5.68
2023-04-16T10:20:01.459Z,5.45
2023-04-16T10:22:29.480Z,5.78
2023-04-16T10:24:58.518Z,5.38
2023-04-16T10:27:26.915Z,5.30
2023-04-16T10:29:54.580Z,5.78
2023-04-16T10:32:28.338Z,5.38
2023-04-16T10:34:56.159Z,5.00
2023-04-16T10:37:33.226Z,5.50
2023-04-16T10:40:00.665Z,5.53
2023-04-16T10:42:28.558Z,5.45
2023-04-16T10:44:59.926Z,5.47
2023-04-16T10:47:29.142Z,5.15
2023-04-16T10:49:58.184Z,5.93
2023-04-16T10:52:29.394Z,5.13
2023-04-16T10:54:59.498Z,5.57
2023-04-16T10:57:29.539Z,5.63
2023-04-16T10:59:56.794Z,5.20
2023-04-16T11:02:29.036Z,4.63
2023-04-16T11:04:57.356Z,4.90
2023-04-16T11:07:33.621Z,5.30
2023-04-16T11:10:05.032Z,5.10
2023-04-16T11:12:40.383Z,5.00
2023-04-16T11:17:47.294Z,4.82
2023-04-16T11:20:19.988Z,5.35
2023-04-16T11:22:50.281Z,4.72
2023-04-16T11:25:30.134Z,4.78
2023-04-16T11:28:01.636Z,4.70
2023-04-16T11:30:34.239Z,5.15
2023-04-16T11:33:05.979Z,4.90
2023-04-16T11:35:33.391Z,5.05
2023-04-16T11:38:01.195Z,5.00
2023-04-16T11:40:31.870Z,4.70
2023-04-16T11:43:13.982Z,4.72
2023-04-16T11:46:01.600Z,4.93
2023-04-16T11:48:49.548Z,5.00
2023-04-16T11:51:18.117Z,4.53
2023-04-16T11:53:56.194Z,4.38
2023-04-16T11:56:32.195Z,4.18
2023-04-16T11:59:27.167Z,4.40
2023-04-16T12:01:58.307Z,4.53
2023-04-16T12:04:27.420Z,4.60
2023-04-16T12:07:12.155Z,4.25
2023-04-16T12:09:41.785Z,4.38
2023-04-16T12:12:30.498Z,4.47
2023-04-16T12:15:00.217Z,4.38
2023-04-16T12:17:27.582Z,4.20
2023-04-16T12:20:00.563Z,4.28
2023-04-16T12:22:36.591Z,4.32
2023-04-16T12:25:11.595Z,4.20
2023-04-16T12:27:46.315Z,4.85
2023-04-16T12:30:15.646Z,4.15
2023-04-16T12:32:44.943Z,4.20
2023-04-16T12:35:12.908Z,4.57
2023-04-16T12:37:41.400Z,4.57
2023-04-16T12:40:09.487Z,4.07
2023-04-16T12:42:37.165Z,4.60
2023-04-16T12:45:06.030Z,4.30
2023-04-16T12:47:33.420Z,4.43
2023-04-16T12:50:01.079Z,4.20
2023-04-16T12:52:28.516Z,4.10
2023-04-16T12:54:56.274Z,4.68
2023-04-16T12:57:28.624Z,4.13
2023-04-16T12:59:57.320Z,3.95
2023-04-16T13:02:25.720Z,4.15
2023-04-16T13:04:53.817Z,4.28
2023-04-16T13:07:21.367Z,4.28
2023-04-16T13:09:48.993Z,3.97
2023-04-16T13:12:16.366Z,4.25
2023-04-16T13:14:45.078Z,4.00
2023-04-16T13:17:12.481Z,4.28
2023-04-16T13:19:39.959Z,4.28
2023-04-16T13:22:07.226Z,4.50
2023-04-16T13:24:34.931Z,4.13
2023-04-16T13:27:02.169Z,4.10
2023-04-16T13:29:29.973Z,4.45
2023-04-16T13:31:57.972Z,4.28
2023-04-16T13:34:25.504Z,4.15
2023-04-16T13:36:52.765Z,4.35
2023-04-16T13:39:20.412Z,4.47
2023-04-16T13:41:49.006Z,4.30
2023-04-16T13:44:16.502Z,4.60
2023-04-16T13:46:47.519Z,4.68
2023-04-16T13:49:15.373Z,4.30
2023-04-16T13:51:44.712Z,4.97
2023-04-16T13:54:12.862Z,5.40
2023-04-16T13:56:40.893Z,5.07
2023-04-16T13:59:08.597Z,5.20
2023-04-16T14:01:36.281Z,5.28
2023-04-16T14:04:06.400Z,5.45
2023-04-16T14:06:34.513Z,5.55
2023-04-16T14:09:02.344Z,5.20
2023-04-16T14:11:29.809Z,5.70
2023-04-16T14:13:57.453Z,5.03
2023-04-16T14:16:25.018Z,5.43
2023-04-16T14:18:52.737Z,5.22
2023-04-16T14:21:20.134Z,5.20
2023-04-16T14:23:47.937Z,5.20
2023-04-16T14:26:15.442Z,4.90
2023-04-16T14:28:43.155Z,5.18
2023-04-16T14:31:10.615Z,5.43
2023-04-16T14:33:38.135Z,4.78
2023-04-16T14:36:05.962Z,5.45
2023-04-16T14:38:33.471Z,5.15
2023-04-16T14:41:00.831Z,4.82
2023-04-16T14:43:28.596Z,4.97
2023-04-16T14:45:58.524Z,4.93
2023-04-16T14:48:26.153Z,4.57
2023-04-16T14:50:53.858Z,4.85
2023-04-16T14:53:23.354Z,4.50
2023-04-16T14:55:52.423Z,4.47
2023-04-16T14:58:20.390Z,4.80
2023-04-16T15:00:47.881Z,4.85
2023-04-16T15:03:16.240Z,4.93
2023-04-16T15:05:43.780Z,4.80
2023-04-16T15:08:11.302Z,5.03
2023-04-16T15:10:38.609Z,5.03
2023-04-16T15:13:06.250Z,4.70
2023-04-16T15:15:33.484Z,5.78
2023-04-16T15:18:01.038Z,6.28
2023-04-16T15:20:28.362Z,6.05
2023-04-16T15:22:55.894Z,6.20
2023-04-16T15:25:24.192Z,6.70
2023-04-16T15:27:52.229Z,6.28
2023-04-16T15:30:19.663Z,6.18
2023-04-16T15:32:47.322Z,6.65
2023-04-16T15:35:14.533Z,6.88
2023-04-16T15:37:42.178Z,6.80
2023-04-16T15:40:09.602Z,7.03
2023-04-16T15:42:37.516Z,6.90
2023-04-16T15:45:05.069Z,7.88
2023-04-16T15:47:32.795Z,7.57
2023-04-16T15:50:00.269Z,8.18
2023-04-16T15:52:28.047Z,7.68
2023-04-16T15:54:55.350Z,7.30
2023-04-16T15:57:22.922Z,7.18
2023-04-16T16:00:03.470Z,7.57
2023-04-16T16:02:34.630Z,7.55
2023-04-16T16:05:03.500Z,7.70
2023-04-16T16:07:32.511Z,7.47
2023-04-16T16:09:59.812Z,7.78
2023-04-16T16:12:27.927Z,7.18
2023-04-16T16:14:55.786Z,6.72
2023-04-16T16:17:23.924Z,7.32
2023-04-16T16:19:52.431Z,6.72
2023-04-16T16:22:23.512Z,7.50
2023-04-16T16:24:51.342Z,7.57
2023-04-16T16:27:19.505Z,7.38
2023-04-16T16:29:47.108Z,7.20
2023-04-16T16:32:16.381Z,7.05
2023-04-16T16:34:43.649Z,7.13
2023-04-16T16:37:11.228Z,6.15
2023-04-16T16:39:38.981Z,7.00
2023-04-16T16:42:08.993Z,6.80
2023-04-16T16:44:36.820Z,6.38
2023-04-16T16:47:04.488Z,6.53
2023-04-16T16:49:31.789Z,6.18
2023-04-16T16:51:59.485Z,6.28
2023-04-16T16:54:26.732Z,6.55
2023-04-16T16:56:54.478Z,6.53
2023-04-16T16:59:21.754Z,6.57
2023-04-16T17:01:49.960Z,5.60
2023-04-16T17:04:20.064Z,6.25
2023-04-16T17:06:48.011Z,6.45
2023-04-16T17:09:15.465Z,6.47
2023-04-16T17:11:42.989Z,5.97
2023-04-16T17:14:10.294Z,6.15
2023-04-16T17:16:37.875Z,6.20
2023-04-16T17:19:05.287Z,5.63
2023-04-16T17:21:33.853Z,5.95
2023-04-16T17:24:01.147Z,5.85
2023-04-16T17:26:28.909Z,6.32
2023-04-16T17:28:57.494Z,5.93
2023-04-16T17:31:27.560Z,6.30
2023-04-16T17:33:54.939Z,6.40
2023-04-16T17:36:23.267Z,6.57
2023-04-16T17:38:51.870Z,5.78
2023-04-16T17:41:19.720Z,5.75
2023-04-16T17:43:49.500Z,6.00
2023-04-16T17:46:17.316Z,6.03
2023-04-16T17:48:44.636Z,5.80
2023-04-16T17:51:16.263Z,5.95
2023-04-16T17:53:44.667Z,5.80
2023-04-16T17:56:13.287Z,6.38
2023-04-16T17:58:40.679Z,5.63
2023-04-16T18:01:08.343Z,5.88
2023-04-16T18:03:37.088Z,5.45
2023-04-16T18:06:05.246Z,5.90
2023-04-16T18:08:33.717Z,5.50
2023-04-16T18:11:01.221Z,5.88
2023-04-16T18:13:28.588Z,6.35
2023-04-16T18:15:56.132Z,5.80
2023-04-16T18:18:23.486Z,5.63
2023-04-16T18:20:52.282Z,5.78
2023-04-16T18:23:19.705Z,5.95
2023-04-16T18:25:48.876Z,5.85
2023-04-16T18:28:17.584Z,6.10
2023-04-16T18:30:45.311Z,6.05
2023-04-16T18:33:43.533Z,6.18
2023-04-16T18:36:03.724Z,5.80
2023-04-16T18:38:31.428Z,5.97
2023-04-16T18:40:59.089Z,5.93
2023-04-16T18:43:26.460Z,6.05
2023-04-16T18:45:54.016Z,6.07
2023-04-16T18:48:21.258Z,5.63
2023-04-16T18:50:48.871Z,6.05
2023-04-16T18:53:16.820Z,5.80
2023-04-16T18:55:44.425Z,6.45
2023-04-16T18:58:12.108Z,6.30
2023-04-16T19:00:39.906Z,6.15
2023-04-16T19:03:07.475Z,6.30
2023-04-16T19:05:35.294Z,7.00
2023-04-16T19:08:02.588Z,7.05
2023-04-16T19:10:30.445Z,8.55
2023-04-16T19:12:57.945Z,10.07
2023-04-16T19:15:25.468Z,10.40
2023-04-16T19:17:52.784Z,10.18
2023-04-16T19:20:20.375Z,10.02
2023-04-16T19:22:47.715Z,9.93
2023-04-16T19:25:15.286Z,10.48
2023-04-16T19:27:42.715Z,10.57
2023-04-16T19:30:10.733Z,11.82
2023-04-16T19:32:38.189Z,11.45
2023-04-16T19:35:06.512Z,10.52
2023-04-16T19:37:33.804Z,10.93
2023-04-16T19:40:02.035Z,10.48
2023-04-16T19:42:29.336Z,11.02
2023-04-16T19:44:56.989Z,11.30
2023-04-16T19:47:24.465Z,10.90
2023-04-16T19:49:52.182Z,10.85
2023-04-16T19:52:19.631Z,10.82
2023-04-16T19:54:47.809Z,10.73
2023-04-16T19:57:16.036Z,11.52
2023-04-16T19:59:43.617Z,10.75
2023-04-16T20:02:10.914Z,9.93
2023-04-16T20:04:38.570Z,10.55
2023-04-16T20:07:05.843Z,10.02
2023-04-16T20:09:33.350Z,10.95
2023-04-16T20:12:01.852Z,10.60
2023-04-16T20:14:29.391Z,10.57
2023-04-16T20:16:57.258Z,10.60
2023-04-16T20:19:29.974Z,10.85
2023-04-16T20:21:57.224Z,10.65
2023-04-16T20:24:24.937Z,10.82
2023-04-16T20:26:52.207Z,11.15
2023-04-16T20:29:19.888Z,10.73
2023-04-16T20:31:47.167Z,10.68
2023-04-16T20:34:14.824Z,10.73
2023-04-16T20:36:42.094Z,11.63
2023-04-16T20:39:10.879Z,10.70
2023-04-16T20:41:43.740Z,10.90
2023-04-16T20:44:18.059Z,10.35
2023-04-16T20:46:49.518Z,11.00
2023-04-16T20:49:18.421Z,11.45
2023-04-16T20:51:45.682Z,10.60
2023-04-16T20:54:13.260Z,11.63
2023-04-16T20:56:40.799Z,10.55
2023-04-16T20:59:09.643Z,10.93
2023-04-16T21:01:37.271Z,10.35
2023-04-16T21:04:06.731Z,10.88
2023-04-16T21:06:38.530Z,11.57
2023-04-16T21:09:06.491Z,10.45
2023-04-16T21:11:35.077Z,10.18
2023-04-16T21:14:03.760Z,10.77
2023-04-16T21:16:32.393Z,10.82
2023-04-16T21:19:00.048Z,10.82
2023-04-16T21:21:27.524Z,10.20
2023-04-16T21:23:55.067Z,10.98
2023-04-16T21:26:22.416Z,10.82
2023-04-16T21:28:49.931Z,10.95
2023-04-16T21:31:17.385Z,10.27
2023-04-16T21:33:44.967Z,10.73
2023-04-16T21:36:12.242Z,10.18
2023-04-16T21:38:39.743Z,10.63
2023-04-16T21:41:07.503Z,10.55
2023-04-16T21:43:35.349Z,11.20
2023-04-16T21:46:02.688Z,10.38
2023-04-16T21:48:31.263Z,11.40
2023-04-16T21:51:01.036Z,11.63
2023-04-16T21:53:28.547Z,10.20
2023-04-16T21:55:55.759Z,10.85
2023-04-16T21:58:24.354Z,10.30
2023-04-16T22:00:52.273Z,10.38
2023-04-16T22:03:26.270Z,11.30
2023-04-16T22:05:58.033Z,10.87
2023-04-16T22:08:27.077Z,10.90
2023-04-16T22:11:02.552Z,10.30
2023-04-16T22:13:33.950Z,11.02
2023-04-16T22:16:01.686Z,11.02
2023-04-16T22:18:32.748Z,11.13
2023-04-16T22:21:01.001Z,11.48
2023-04-16T22:23:28.638Z,10.60
2023-04-16T22:25:57.133Z,10.82
2023-04-16T22:28:24.609Z,11.07
2023-04-16T22:30:51.916Z,10.93
2023-04-16T22:33:20.305Z,10.65
2023-04-16T22:35:47.547Z,10.80
2023-04-16T22:38:16.398Z,10.35
2023-04-16T22:40:43.716Z,10.00
2023-04-16T22:43:11.308Z,10.93
2023-04-16T22:45:38.604Z,10.75
2023-04-16T22:48:06.259Z,10.85
2023-04-16T22:50:33.615Z,10.13
2023-04-16T22:53:01.115Z,10.82
2023-04-16T22:55:28.418Z,10.45
2023-04-16T22:57:55.918Z,10.63
2023-04-16T23:00:23.266Z,10.75
2023-04-16T23:02:50.844Z,10.10
2023-04-16T23:05:18.164Z,10.43
2023-04-16T23:07:45.941Z,9.82
2023-04-16T23:10:13.173Z,10.43
2023-04-16T23:12:40.729Z,10.18
2023-04-16T23:15:08.826Z,9.93
2023-04-16T23:17:36.489Z,10.52
2023-04-16T23:20:07.453Z,10.38
2023-04-16T23:22:34.985Z,10.52
2023-04-16T23:25:02.213Z,9.93
2023-04-16T23:27:29.888Z,10.05
2023-04-16T23:29:57.094Z,10.45
2023-04-16T23:32:24.639Z,9.73
2023-04-16T23:34:52.025Z,9.73
2023-04-16T23:37:19.504Z,10.20
2023-04-16T23:39:46.737Z,10.18
2023-04-16T23:42:14.350Z,9.82
2023-04-16T23:44:41.885Z,9.20
2023-04-16T23:47:09.549Z,9.65
2023-04-16T23:49:37.313Z,9.70
2023-04-16T23:52:05.023Z,9.98
2023-04-16T23:54:32.394Z,9.77
2023-04-16T23:56:59.903Z,9.43
2023-04-16T23:59:27.251Z,9.57
